sensor_id;sensor_type;location;lat;lon;timestamp;P1;durP1;ratioP1;P2;durP2;ratioP2
42514;SDS011;28144;49.920;18.730;2024-01-16T00:04:22;8.40;;;4.82;;
42514;SDS011;28144;49.920;18.730;2024-01-16T00:06:48;8.70;;;4.70;;
42514;SDS011;28144;49.920;18.730;2024-01-16T00:09:13;8.33;;;4.07;;
42514;SDS011;28144;49.920;18.730;2024-01-16T00:11:42;9.67;;;5.07;;
42514;SDS011;28144;49.920;18.730;2024-01-16T00:14:08;10.53;;;5.30;;
42514;SDS011;28144;49.920;18.730;2024-01-16T00:16:41;12.85;;;5.10;;
42514;SDS011;28144;49.920;18.730;2024-01-16T00:19:08;8.27;;;4.70;;
42514;SDS011;28144;49.920;18.730;2024-01-16T00:21:38;12.20;;;5.27;;
42514;SDS011;28144;49.920;18.730;2024-01-16T00:24:13;11.37;;;5.73;;
42514;SDS011;28144;49.920;18.730;2024-01-16T00:29:04;9.60;;;4.50;;
42514;SDS011;28144;49.920;18.730;2024-01-16T00:31:30;7.80;;;4.43;;
42514;SDS011;28144;49.920;18.730;2024-01-16T00:33:56;6.63;;;3.87;;
42514;SDS011;28144;49.920;18.730;2024-01-16T00:36:22;9.73;;;4.63;;
42514;SDS011;28144;49.920;18.730;2024-01-16T00:38:47;8.70;;;4.23;;
42514;SDS011;28144;49.920;18.730;2024-01-16T00:41:13;8.03;;;4.70;;
42514;SDS011;28144;49.920;18.730;2024-01-16T00:43:45;10.43;;;5.37;;
42514;SDS011;28144;49.920;18.730;2024-01-16T00:46:11;9.17;;;4.57;;
42514;SDS011;28144;49.920;18.730;2024-01-16T00:48:37;11.20;;;5.20;;
42514;SDS011;28144;49.920;18.730;2024-01-16T00:51:03;11.23;;;4.90;;
42514;SDS011;28144;49.920;18.730;2024-01-16T00:53:28;11.67;;;5.63;;
42514;SDS011;28144;49.920;18.730;2024-01-16T00:55:54;8.27;;;4.60;;
42514;SDS011;28144;49.920;18.730;2024-01-16T00:58:23;11.60;;;5.53;;
42514;SDS011;28144;49.920;18.730;2024-01-16T01:00:49;10.63;;;5.63;;
42514;SDS011;28144;49.920;18.730;2024-01-16T01:03:14;10.23;;;5.50;;
42514;SDS011;28144;49.920;18.730;2024-01-16T01:05:40;10.10;;;5.00;;
42514;SDS011;28144;49.920;18.730;2024-01-16T01:08:06;8.90;;;4.77;;
42514;SDS011;28144;49.920;18.730;2024-01-16T01:10:33;11.40;;;5.10;;
42514;SDS011;28144;49.920;18.730;2024-01-16T01:12:58;12.70;;;5.13;;
42514;SDS011;28144;49.920;18.730;2024-01-16T01:15:24;9.10;;;4.57;;
42514;SDS011;28144;49.920;18.730;2024-01-16T01:17:50;7.80;;;3.80;;
42514;SDS011;28144;49.920;18.730;2024-01-16T01:20:17;7.75;;;4.10;;
42514;SDS011;28144;49.920;18.730;2024-01-16T01:22:43;7.95;;;5.00;;
42514;SDS011;28144;49.920;18.730;2024-01-16T01:25:10;7.65;;;4.18;;
42514;SDS011;28144;49.920;18.730;2024-01-16T01:27:37;7.90;;;4.40;;
42514;SDS011;28144;49.920;18.730;2024-01-16T01:30:06;7.93;;;4.53;;
42514;SDS011;28144;49.920;18.730;2024-01-16T01:32:35;11.63;;;5.90;;
42514;SDS011;28144;49.920;18.730;2024-01-16T01:35:01;8.57;;;4.50;;
42514;SDS011;28144;49.920;18.730;2024-01-16T01:37:26;10.23;;;5.17;;
42514;SDS011;28144;49.920;18.730;2024-01-16T01:39:52;8.00;;;4.77;;
42514;SDS011;28144;49.920;18.730;2024-01-16T01:42:19;8.83;;;4.27;;
42514;SDS011;28144;49.920;18.730;2024-01-16T01:47:10;6.73;;;3.63;;
42514;SDS011;28144;49.920;18.730;2024-01-16T01:49:36;8.50;;;4.50;;
42514;SDS011;28144;49.920;18.730;2024-01-16T01:52:03;7.72;;;4.40;;
42514;SDS011;28144;49.920;18.730;2024-01-16T01:54:29;5.50;;;3.75;;
42514;SDS011;28144;49.920;18.730;2024-01-16T01:56:57;11.67;;;4.63;;
42514;SDS011;28144;49.920;18.730;2024-01-16T01:59:23;9.10;;;4.10;;
42514;SDS011;28144;49.920;18.730;2024-01-16T02:01:50;6.63;;;3.80;;
42514;SDS011;28144;49.920;18.730;2024-01-16T02:04:19;9.27;;;4.40;;
42514;SDS011;28144;49.920;18.730;2024-01-16T02:06:45;9.10;;;5.15;;
42514;SDS011;28144;49.920;18.730;2024-01-16T02:09:14;7.95;;;4.82;;
42514;SDS011;28144;49.920;18.730;2024-01-16T02:11:43;10.10;;;4.87;;
42514;SDS011;28144;49.920;18.730;2024-01-16T02:14:09;10.87;;;5.80;;
42514;SDS011;28144;49.920;18.730;2024-01-16T02:16:35;10.10;;;3.60;;
42514;SDS011;28144;49.920;18.730;2024-01-16T02:19:05;7.90;;;4.40;;
42514;SDS011;28144;49.920;18.730;2024-01-16T02:21:35;6.75;;;4.43;;
42514;SDS011;28144;49.920;18.730;2024-01-16T02:24:05;10.53;;;4.30;;
42514;SDS011;28144;49.920;18.730;2024-01-16T02:26:31;11.90;;;4.80;;
42514;SDS011;28144;49.920;18.730;2024-01-16T02:28:57;9.70;;;4.57;;
42514;SDS011;28144;49.920;18.730;2024-01-16T02:31:23;6.40;;;4.27;;
42514;SDS011;28144;49.920;18.730;2024-01-16T02:33:49;7.80;;;4.22;;
42514;SDS011;28144;49.920;18.730;2024-01-16T02:36:15;6.63;;;3.97;;
42514;SDS011;28144;49.920;18.730;2024-01-16T02:38:41;6.33;;;3.93;;
42514;SDS011;28144;49.920;18.730;2024-01-16T02:41:07;6.43;;;3.63;;
42514;SDS011;28144;49.920;18.730;2024-01-16T02:43:33;7.90;;;3.80;;
42514;SDS011;28144;49.920;18.730;2024-01-16T02:45:58;8.47;;;4.10;;
42514;SDS011;28144;49.920;18.730;2024-01-16T02:48:24;7.77;;;3.83;;
42514;SDS011;28144;49.920;18.730;2024-01-16T02:50:50;7.93;;;3.63;;
42514;SDS011;28144;49.920;18.730;2024-01-16T02:53:16;7.57;;;3.97;;
42514;SDS011;28144;49.920;18.730;2024-01-16T02:55:42;7.70;;;3.80;;
42514;SDS011;28144;49.920;18.730;2024-01-16T02:58:07;8.67;;;4.33;;
42514;SDS011;28144;49.920;18.730;2024-01-16T03:00:33;6.80;;;4.30;;
42514;SDS011;28144;49.920;18.730;2024-01-16T03:02:59;7.23;;;3.90;;
42514;SDS011;28144;49.920;18.730;2024-01-16T03:05:25;7.25;;;4.13;;
42514;SDS011;28144;49.920;18.730;2024-01-16T03:07:51;7.13;;;4.17;;
42514;SDS011;28144;49.920;18.730;2024-01-16T03:10:16;7.57;;;4.13;;
42514;SDS011;28144;49.920;18.730;2024-01-16T03:12:42;6.87;;;3.93;;
42514;SDS011;28144;49.920;18.730;2024-01-16T03:15:08;6.73;;;4.20;;
42514;SDS011;28144;49.920;18.730;2024-01-16T03:17:35;6.65;;;4.05;;
42514;SDS011;28144;49.920;18.730;2024-01-16T03:20:00;6.60;;;2.93;;
42514;SDS011;28144;49.920;18.730;2024-01-16T03:22:28;8.57;;;4.47;;
42514;SDS011;28144;49.920;18.730;2024-01-16T03:24:54;7.47;;;4.40;;
42514;SDS011;28144;49.920;18.730;2024-01-16T03:27:20;8.90;;;4.40;;
42514;SDS011;28144;49.920;18.730;2024-01-16T03:29:45;7.90;;;5.00;;
42514;SDS011;28144;49.920;18.730;2024-01-16T03:32:12;7.53;;;4.57;;
42514;SDS011;28144;49.920;18.730;2024-01-16T03:34:37;9.47;;;4.40;;
42514;SDS011;28144;49.920;18.730;2024-01-16T03:37:03;7.37;;;4.47;;
42514;SDS011;28144;49.920;18.730;2024-01-16T03:39:29;7.40;;;3.73;;
42514;SDS011;28144;49.920;18.730;2024-01-16T03:41:55;8.77;;;4.07;;
42514;SDS011;28144;49.920;18.730;2024-01-16T03:44:20;6.67;;;4.20;;
42514;SDS011;28144;49.920;18.730;2024-01-16T03:46:46;5.77;;;3.83;;
42514;SDS011;28144;49.920;18.730;2024-01-16T03:49:12;7.67;;;3.80;;
42514;SDS011;28144;49.920;18.730;2024-01-16T03:51:37;8.93;;;4.50;;
42514;SDS011;28144;49.920;18.730;2024-01-16T03:54:03;7.90;;;4.10;;
42514;SDS011;28144;49.920;18.730;2024-01-16T03:56:30;8.57;;;4.22;;
42514;SDS011;28144;49.920;18.730;2024-01-16T03:58:55;11.13;;;5.27;;
42514;SDS011;28144;49.920;18.730;2024-01-16T04:01:31;13.93;;;6.33;;
42514;SDS011;28144;49.920;18.730;2024-01-16T04:03:57;9.90;;;5.50;;
42514;SDS011;28144;49.920;18.730;2024-01-16T04:06:23;8.30;;;4.23;;
42514;SDS011;28144;49.920;18.730;2024-01-16T04:08:48;9.47;;;4.57;;
42514;SDS011;28144;49.920;18.730;2024-01-16T04:11:15;6.33;;;3.83;;
42514;SDS011;28144;49.920;18.730;2024-01-16T04:13:40;9.30;;;4.40;;
42514;SDS011;28144;49.920;18.730;2024-01-16T04:16:06;7.38;;;3.80;;
42514;SDS011;28144;49.920;18.730;2024-01-16T04:18:35;10.17;;;5.00;;
42514;SDS011;28144;49.920;18.730;2024-01-16T04:21:03;6.63;;;4.03;;
42514;SDS011;28144;49.920;18.730;2024-01-16T04:23:29;8.13;;;4.53;;
42514;SDS011;28144;49.920;18.730;2024-01-16T04:25:55;8.27;;;4.40;;
42514;SDS011;28144;49.920;18.730;2024-01-16T04:28:20;7.40;;;4.70;;
42514;SDS011;28144;49.920;18.730;2024-01-16T04:30:46;7.20;;;4.47;;
42514;SDS011;28144;49.920;18.730;2024-01-16T04:33:11;10.07;;;4.90;;
42514;SDS011;28144;49.920;18.730;2024-01-16T04:35:37;8.87;;;4.83;;
42514;SDS011;28144;49.920;18.730;2024-01-16T04:38:03;8.70;;;4.83;;
42514;SDS011;28144;49.920;18.730;2024-01-16T04:40:29;10.37;;;5.27;;
42514;SDS011;28144;49.920;18.730;2024-01-16T04:42:54;6.47;;;4.20;;
42514;SDS011;28144;49.920;18.730;2024-01-16T04:45:20;8.83;;;4.73;;
42514;SDS011;28144;49.920;18.730;2024-01-16T04:47:46;8.37;;;4.00;;
42514;SDS011;28144;49.920;18.730;2024-01-16T04:50:12;8.13;;;4.60;;
42514;SDS011;28144;49.920;18.730;2024-01-16T04:52:37;10.17;;;5.00;;
42514;SDS011;28144;49.920;18.730;2024-01-16T04:55:03;6.93;;;4.90;;
42514;SDS011;28144;49.920;18.730;2024-01-16T04:57:29;8.23;;;4.53;;
42514;SDS011;28144;49.920;18.730;2024-01-16T04:59:55;7.70;;;4.00;;
42514;SDS011;28144;49.920;18.730;2024-01-16T05:02:21;6.30;;;3.50;;
42514;SDS011;28144;49.920;18.730;2024-01-16T05:04:46;8.17;;;3.60;;
42514;SDS011;28144;49.920;18.730;2024-01-16T05:07:14;4.77;;;3.00;;
42514;SDS011;28144;49.920;18.730;2024-01-16T05:09:41;4.85;;;2.88;;
42514;SDS011;28144;49.920;18.730;2024-01-16T05:12:06;6.73;;;3.33;;
42514;SDS011;28144;49.920;18.730;2024-01-16T05:14:32;6.97;;;2.83;;
42514;SDS011;28144;49.920;18.730;2024-01-16T05:16:58;5.37;;;3.20;;
42514;SDS011;28144;49.920;18.730;2024-01-16T05:19:24;7.47;;;3.67;;
42514;SDS011;28144;49.920;18.730;2024-01-16T05:21:50;7.35;;;2.75;;
42514;SDS011;28144;49.920;18.730;2024-01-16T05:24:16;6.30;;;3.40;;
42514;SDS011;28144;49.920;18.730;2024-01-16T05:26:41;6.57;;;3.83;;
42514;SDS011;28144;49.920;18.730;2024-01-16T05:29:08;8.50;;;3.83;;
42514;SDS011;28144;49.920;18.730;2024-01-16T05:31:39;7.35;;;4.07;;
42514;SDS011;28144;49.920;18.730;2024-01-16T05:34:05;5.07;;;3.13;;
42514;SDS011;28144;49.920;18.730;2024-01-16T05:36:31;6.77;;;4.20;;
42514;SDS011;28144;49.920;18.730;2024-01-16T05:38:57;7.53;;;4.80;;
42514;SDS011;28144;49.920;18.730;2024-01-16T05:41:22;5.37;;;3.83;;
42514;SDS011;28144;49.920;18.730;2024-01-16T05:43:48;10.10;;;5.20;;
42514;SDS011;28144;49.920;18.730;2024-01-16T05:46:14;6.47;;;3.90;;
42514;SDS011;28144;49.920;18.730;2024-01-16T05:48:39;8.87;;;4.73;;
42514;SDS011;28144;49.920;18.730;2024-01-16T05:51:05;16.17;;;7.37;;
42514;SDS011;28144;49.920;18.730;2024-01-16T05:53:31;11.63;;;4.67;;
42514;SDS011;28144;49.920;18.730;2024-01-16T05:55:56;11.87;;;5.73;;
42514;SDS011;28144;49.920;18.730;2024-01-16T05:58:23;5.40;;;3.78;;
42514;SDS011;28144;49.920;18.730;2024-01-16T06:00:48;7.43;;;4.20;;
42514;SDS011;28144;49.920;18.730;2024-01-16T06:03:14;6.60;;;4.10;;
42514;SDS011;28144;49.920;18.730;2024-01-16T06:05:40;9.30;;;5.03;;
42514;SDS011;28144;49.920;18.730;2024-01-16T06:08:06;7.50;;;4.60;;
42514;SDS011;28144;49.920;18.730;2024-01-16T06:10:31;10.73;;;4.90;;
42514;SDS011;28144;49.920;18.730;2024-01-16T06:12:57;11.17;;;5.27;;
42514;SDS011;28144;49.920;18.730;2024-01-16T06:15:23;8.77;;;4.53;;
42514;SDS011;28144;49.920;18.730;2024-01-16T06:17:49;7.83;;;3.93;;
42514;SDS011;28144;49.920;18.730;2024-01-16T06:20:14;5.27;;;3.03;;
42514;SDS011;28144;49.920;18.730;2024-01-16T06:22:40;11.07;;;3.83;;
42514;SDS011;28144;49.920;18.730;2024-01-16T06:25:06;8.20;;;3.63;;
42514;SDS011;28144;49.920;18.730;2024-01-16T06:27:32;7.50;;;3.10;;
42514;SDS011;28144;49.920;18.730;2024-01-16T06:29:58;7.13;;;3.20;;
42514;SDS011;28144;49.920;18.730;2024-01-16T06:32:24;7.43;;;3.60;;
42514;SDS011;28144;49.920;18.730;2024-01-16T06:34:50;6.50;;;4.53;;
42514;SDS011;28144;49.920;18.730;2024-01-16T06:37:15;7.13;;;4.53;;
42514;SDS011;28144;49.920;18.730;2024-01-16T06:39:41;6.83;;;4.37;;
42514;SDS011;28144;49.920;18.730;2024-01-16T06:42:07;8.73;;;4.23;;
42514;SDS011;28144;49.920;18.730;2024-01-16T06:44:32;5.67;;;2.93;;
42514;SDS011;28144;49.920;18.730;2024-01-16T06:46:58;6.00;;;2.87;;
42514;SDS011;28144;49.920;18.730;2024-01-16T06:49:24;6.23;;;2.33;;
42514;SDS011;28144;49.920;18.730;2024-01-16T06:51:50;4.83;;;2.33;;
42514;SDS011;28144;49.920;18.730;2024-01-16T06:54:16;7.23;;;2.73;;
42514;SDS011;28144;49.920;18.730;2024-01-16T06:56:42;6.63;;;2.60;;
42514;SDS011;28144;49.920;18.730;2024-01-16T06:59:07;8.13;;;2.60;;
42514;SDS011;28144;49.920;18.730;2024-01-16T07:01:33;5.63;;;2.50;;
42514;SDS011;28144;49.920;18.730;2024-01-16T07:03:59;7.83;;;2.80;;
42514;SDS011;28144;49.920;18.730;2024-01-16T07:06:24;9.90;;;3.37;;
42514;SDS011;28144;49.920;18.730;2024-01-16T07:08:50;8.77;;;2.80;;
42514;SDS011;28144;49.920;18.730;2024-01-16T07:11:16;9.40;;;2.60;;
42514;SDS011;28144;49.920;18.730;2024-01-16T07:13:43;9.43;;;2.27;;
42514;SDS011;28144;49.920;18.730;2024-01-16T07:21:01;6.57;;;2.50;;
42514;SDS011;28144;49.920;18.730;2024-01-16T07:23:28;9.95;;;2.28;;
42514;SDS011;28144;49.920;18.730;2024-01-16T07:25:54;8.23;;;2.73;;
42514;SDS011;28144;49.920;18.730;2024-01-16T07:28:20;4.73;;;2.03;;
42514;SDS011;28144;49.920;18.730;2024-01-16T07:30:47;8.90;;;2.67;;
42514;SDS011;28144;49.920;18.730;2024-01-16T07:33:13;6.57;;;2.80;;
42514;SDS011;28144;49.920;18.730;2024-01-16T07:35:39;9.40;;;3.17;;
42514;SDS011;28144;49.920;18.730;2024-01-16T07:38:06;9.13;;;2.80;;
42514;SDS011;28144;49.920;18.730;2024-01-16T07:40:32;13.88;;;2.92;;
42514;SDS011;28144;49.920;18.730;2024-01-16T07:42:58;7.70;;;3.30;;
42514;SDS011;28144;49.920;18.730;2024-01-16T07:45:24;10.30;;;3.50;;
42514;SDS011;28144;49.920;18.730;2024-01-16T07:47:49;9.97;;;3.13;;
42514;SDS011;28144;49.920;18.730;2024-01-16T07:50:15;7.63;;;2.70;;
42514;SDS011;28144;49.920;18.730;2024-01-16T07:52:41;7.80;;;3.37;;
42514;SDS011;28144;49.920;18.730;2024-01-16T07:55:07;5.73;;;3.07;;
42514;SDS011;28144;49.920;18.730;2024-01-16T07:57:32;8.17;;;2.47;;
42514;SDS011;28144;49.920;18.730;2024-01-16T07:59:58;7.63;;;2.83;;
42514;SDS011;28144;49.920;18.730;2024-01-16T08:02:30;5.13;;;2.33;;
42514;SDS011;28144;49.920;18.730;2024-01-16T08:04:57;9.40;;;2.77;;
42514;SDS011;28144;49.920;18.730;2024-01-16T08:07:23;7.97;;;2.63;;
42514;SDS011;28144;49.920;18.730;2024-01-16T08:09:49;7.60;;;2.60;;
42514;SDS011;28144;49.920;18.730;2024-01-16T08:12:15;6.68;;;2.47;;
42514;SDS011;28144;49.920;18.730;2024-01-16T08:14:41;3.47;;;1.73;;
42514;SDS011;28144;49.920;18.730;2024-01-16T08:19:34;6.90;;;1.80;;
42514;SDS011;28144;49.920;18.730;2024-01-16T08:21:59;8.87;;;2.67;;
42514;SDS011;28144;49.920;18.730;2024-01-16T08:24:25;10.70;;;3.67;;
42514;SDS011;28144;49.920;18.730;2024-01-16T08:26:51;10.17;;;2.63;;
42514;SDS011;28144;49.920;18.730;2024-01-16T08:29:17;5.43;;;2.27;;
42514;SDS011;28144;49.920;18.730;2024-01-16T08:31:42;8.77;;;2.30;;
42514;SDS011;28144;49.920;18.730;2024-01-16T08:34:08;5.93;;;2.43;;
42514;SDS011;28144;49.920;18.730;2024-01-16T08:36:34;5.57;;;2.30;;
42514;SDS011;28144;49.920;18.730;2024-01-16T08:38:59;7.40;;;2.77;;
42514;SDS011;28144;49.920;18.730;2024-01-16T08:41:25;7.03;;;2.13;;
42514;SDS011;28144;49.920;18.730;2024-01-16T08:43:51;9.13;;;2.10;;
42514;SDS011;28144;49.920;18.730;2024-01-16T08:46:17;9.27;;;2.30;;
42514;SDS011;28144;49.920;18.730;2024-01-16T08:48:45;8.07;;;2.00;;
42514;SDS011;28144;49.920;18.730;2024-01-16T08:51:10;9.13;;;2.40;;
42514;SDS011;28144;49.920;18.730;2024-01-16T08:53:39;7.53;;;2.33;;
42514;SDS011;28144;49.920;18.730;2024-01-16T08:56:05;6.47;;;2.67;;
42514;SDS011;28144;49.920;18.730;2024-01-16T08:58:34;4.93;;;2.33;;
42514;SDS011;28144;49.920;18.730;2024-01-16T09:01:03;6.53;;;2.40;;
42514;SDS011;28144;49.920;18.730;2024-01-16T09:03:31;10.13;;;1.90;;
42514;SDS011;28144;49.920;18.730;2024-01-16T09:05:57;7.37;;;2.47;;
42514;SDS011;28144;49.920;18.730;2024-01-16T09:08:24;3.83;;;2.07;;
42514;SDS011;28144;49.920;18.730;2024-01-16T09:10:51;5.53;;;2.30;;
42514;SDS011;28144;49.920;18.730;2024-01-16T09:13:21;6.33;;;2.20;;
42514;SDS011;28144;49.920;18.730;2024-01-16T09:15:48;4.63;;;2.23;;
42514;SDS011;28144;49.920;18.730;2024-01-16T09:18:15;8.23;;;2.30;;
42514;SDS011;28144;49.920;18.730;2024-01-16T09:20:44;5.40;;;1.85;;
42514;SDS011;28144;49.920;18.730;2024-01-16T09:23:10;3.47;;;1.80;;
42514;SDS011;28144;49.920;18.730;2024-01-16T09:25:36;3.53;;;1.80;;
42514;SDS011;28144;49.920;18.730;2024-01-16T09:28:02;11.07;;;2.80;;
42514;SDS011;28144;49.920;18.730;2024-01-16T09:30:28;6.30;;;1.90;;
42514;SDS011;28144;49.920;18.730;2024-01-16T09:32:54;5.57;;;2.30;;
42514;SDS011;28144;49.920;18.730;2024-01-16T09:35:19;5.13;;;2.20;;
42514;SDS011;28144;49.920;18.730;2024-01-16T09:37:45;3.33;;;1.83;;
42514;SDS011;28144;49.920;18.730;2024-01-16T09:40:11;10.50;;;2.60;;
42514;SDS011;28144;49.920;18.730;2024-01-16T09:42:39;8.20;;;2.43;;
42514;SDS011;28144;49.920;18.730;2024-01-16T09:47:31;4.60;;;1.77;;
42514;SDS011;28144;49.920;18.730;2024-01-16T09:49:59;2.93;;;1.60;;
42514;SDS011;28144;49.920;18.730;2024-01-16T09:52:26;6.10;;;2.43;;
42514;SDS011;28144;49.920;18.730;2024-01-16T09:54:51;4.77;;;2.07;;
42514;SDS011;28144;49.920;18.730;2024-01-16T09:57:18;4.57;;;2.30;;
42514;SDS011;28144;49.920;18.730;2024-01-16T09:59:48;4.40;;;2.40;;
42514;SDS011;28144;49.920;18.730;2024-01-16T10:02:14;4.23;;;2.00;;
42514;SDS011;28144;49.920;18.730;2024-01-16T10:04:43;2.67;;;1.63;;
42514;SDS011;28144;49.920;18.730;2024-01-16T10:07:12;8.47;;;2.23;;
42514;SDS011;28144;49.920;18.730;2024-01-16T10:09:38;5.88;;;2.00;;
42514;SDS011;28144;49.920;18.730;2024-01-16T10:12:05;8.98;;;2.22;;
42514;SDS011;28144;49.920;18.730;2024-01-16T10:14:31;5.53;;;2.65;;
42514;SDS011;28144;49.920;18.730;2024-01-16T10:17:01;4.40;;;2.28;;
42514;SDS011;28144;49.920;18.730;2024-01-16T10:19:31;6.57;;;2.10;;
42514;SDS011;28144;49.920;18.730;2024-01-16T10:22:06;8.05;;;2.60;;
42514;SDS011;28144;49.920;18.730;2024-01-16T10:24:32;11.40;;;2.83;;
42514;SDS011;28144;49.920;18.730;2024-01-16T10:27:01;10.20;;;2.60;;
42514;SDS011;28144;49.920;18.730;2024-01-16T10:29:31;6.73;;;3.03;;
42514;SDS011;28144;49.920;18.730;2024-01-16T10:31:57;7.55;;;2.97;;
42514;SDS011;28144;49.920;18.730;2024-01-16T10:34:23;6.72;;;2.83;;
42514;SDS011;28144;49.920;18.730;2024-01-16T10:36:50;8.37;;;3.23;;
42514;SDS011;28144;49.920;18.730;2024-01-16T10:39:19;6.30;;;2.60;;
42514;SDS011;28144;49.920;18.730;2024-01-16T10:41:56;6.93;;;2.13;;
42514;SDS011;28144;49.920;18.730;2024-01-16T10:44:22;5.57;;;2.55;;
42514;SDS011;28144;49.920;18.730;2024-01-16T10:46:48;4.30;;;1.80;;
42514;SDS011;28144;49.920;18.730;2024-01-16T10:49:14;5.53;;;2.15;;
42514;SDS011;28144;49.920;18.730;2024-01-16T10:51:42;6.67;;;2.00;;
42514;SDS011;28144;49.920;18.730;2024-01-16T10:54:09;4.23;;;2.20;;
42514;SDS011;28144;49.920;18.730;2024-01-16T10:56:45;8.37;;;3.50;;
42514;SDS011;28144;49.920;18.730;2024-01-16T10:59:20;6.17;;;2.70;;
42514;SDS011;28144;49.920;18.730;2024-01-16T11:01:50;5.73;;;1.90;;
42514;SDS011;28144;49.920;18.730;2024-01-16T11:04:18;6.07;;;2.27;;
42514;SDS011;28144;49.920;18.730;2024-01-16T11:06:46;10.07;;;2.10;;
42514;SDS011;28144;49.920;18.730;2024-01-16T11:09:12;4.10;;;2.15;;
42514;SDS011;28144;49.920;18.730;2024-01-16T11:11:41;5.80;;;2.13;;
42514;SDS011;28144;49.920;18.730;2024-01-16T11:14:09;8.70;;;2.80;;
42514;SDS011;28144;49.920;18.730;2024-01-16T11:16:36;5.53;;;2.60;;
42514;SDS011;28144;49.920;18.730;2024-01-16T11:19:04;3.67;;;2.23;;
42514;SDS011;28144;49.920;18.730;2024-01-16T11:21:34;6.53;;;2.67;;
42514;SDS011;28144;49.920;18.730;2024-01-16T11:26:30;3.67;;;2.15;;
42514;SDS011;28144;49.920;18.730;2024-01-16T11:28:58;13.97;;;2.10;;
42514;SDS011;28144;49.920;18.730;2024-01-16T11:34:09;5.47;;;2.27;;
42514;SDS011;28144;49.920;18.730;2024-01-16T11:36:51;7.70;;;2.47;;
42514;SDS011;28144;49.920;18.730;2024-01-16T11:39:21;4.60;;;2.30;;
42514;SDS011;28144;49.920;18.730;2024-01-16T11:47:09;7.00;;;2.53;;
42514;SDS011;28144;49.920;18.730;2024-01-16T11:49:37;3.00;;;1.70;;
42514;SDS011;28144;49.920;18.730;2024-01-16T11:52:03;7.53;;;1.77;;
42514;SDS011;28144;49.920;18.730;2024-01-16T11:54:29;5.47;;;2.07;;
42514;SDS011;28144;49.920;18.730;2024-01-16T12:05:12;15.53;;;4.30;;
42514;SDS011;28144;49.920;18.730;2024-01-16T12:10:11;15.63;;;4.97;;
42514;SDS011;28144;49.920;18.730;2024-01-16T12:12:37;17.67;;;5.73;;
42514;SDS011;28144;49.920;18.730;2024-01-16T12:15:03;17.20;;;5.60;;
42514;SDS011;28144;49.920;18.730;2024-01-16T12:17:29;10.75;;;4.05;;
42514;SDS011;28144;49.920;18.730;2024-01-16T12:19:55;16.53;;;5.70;;
42514;SDS011;28144;49.920;18.730;2024-01-16T12:22:21;20.02;;;7.25;;
42514;SDS011;28144;49.920;18.730;2024-01-16T12:24:48;20.38;;;4.93;;
42514;SDS011;28144;49.920;18.730;2024-01-16T12:27:14;20.10;;;6.90;;
42514;SDS011;28144;49.920;18.730;2024-01-16T12:29:40;13.85;;;6.20;;
42514;SDS011;28144;49.920;18.730;2024-01-16T12:32:10;14.93;;;6.28;;
42514;SDS011;28144;49.920;18.730;2024-01-16T12:35:10;15.23;;;5.83;;
42514;SDS011;28144;49.920;18.730;2024-01-16T12:37:29;12.20;;;5.57;;
42514;SDS011;28144;49.920;18.730;2024-01-16T12:39:55;9.17;;;4.27;;
42514;SDS011;28144;49.920;18.730;2024-01-16T12:42:23;15.63;;;5.47;;
42514;SDS011;28144;49.920;18.730;2024-01-16T12:44:50;19.27;;;5.90;;
42514;SDS011;28144;49.920;18.730;2024-01-16T12:47:16;16.37;;;6.97;;
42514;SDS011;28144;49.920;18.730;2024-01-16T12:49:44;13.57;;;6.03;;
42514;SDS011;28144;49.920;18.730;2024-01-16T12:52:20;11.93;;;6.00;;
42514;SDS011;28144;49.920;18.730;2024-01-16T12:54:57;15.52;;;6.40;;
42514;SDS011;28144;49.920;18.730;2024-01-16T12:57:25;10.07;;;4.93;;
42514;SDS011;28144;49.920;18.730;2024-01-16T12:59:50;12.80;;;5.23;;
42514;SDS011;28144;49.920;18.730;2024-01-16T13:02:21;14.43;;;5.32;;
42514;SDS011;28144;49.920;18.730;2024-01-16T13:04:59;12.43;;;4.30;;
42514;SDS011;28144;49.920;18.730;2024-01-16T13:07:28;10.00;;;3.80;;
42514;SDS011;28144;49.920;18.730;2024-01-16T13:10:09;7.77;;;3.27;;
42514;SDS011;28144;49.920;18.730;2024-01-16T13:12:41;5.27;;;2.90;;
42514;SDS011;28144;49.920;18.730;2024-01-16T13:15:07;7.00;;;2.70;;
42514;SDS011;28144;49.920;18.730;2024-01-16T13:17:33;6.72;;;3.08;;
42514;SDS011;28144;49.920;18.730;2024-01-16T13:20:00;9.82;;;3.10;;
42514;SDS011;28144;49.920;18.730;2024-01-16T13:24:52;9.27;;;4.20;;
42514;SDS011;28144;49.920;18.730;2024-01-16T13:27:18;10.43;;;4.50;;
42514;SDS011;28144;49.920;18.730;2024-01-16T13:29:43;13.33;;;4.93;;
42514;SDS011;28144;49.920;18.730;2024-01-16T13:32:10;12.55;;;4.97;;
42514;SDS011;28144;49.920;18.730;2024-01-16T13:34:36;10.50;;;4.27;;
42514;SDS011;28144;49.920;18.730;2024-01-16T13:37:02;14.98;;;5.20;;
42514;SDS011;28144;49.920;18.730;2024-01-16T13:41:57;16.27;;;5.80;;
42514;SDS011;28144;49.920;18.730;2024-01-16T13:44:23;15.70;;;5.97;;
42514;SDS011;28144;49.920;18.730;2024-01-16T13:46:49;14.70;;;6.37;;
42514;SDS011;28144;49.920;18.730;2024-01-16T13:49:15;14.23;;;5.90;;
42514;SDS011;28144;49.920;18.730;2024-01-16T13:51:43;15.10;;;5.90;;
42514;SDS011;28144;49.920;18.730;2024-01-16T13:54:09;21.87;;;6.10;;
42514;SDS011;28144;49.920;18.730;2024-01-16T13:56:35;19.00;;;5.93;;
42514;SDS011;28144;49.920;18.730;2024-01-16T13:59:01;16.03;;;5.10;;
42514;SDS011;28144;49.920;18.730;2024-01-16T14:01:27;15.37;;;5.43;;
42514;SDS011;28144;49.920;18.730;2024-01-16T14:03:53;16.50;;;4.82;;
42514;SDS011;28144;49.920;18.730;2024-01-16T14:06:19;15.33;;;5.07;;
42514;SDS011;28144;49.920;18.730;2024-01-16T14:08:45;12.60;;;5.07;;
42514;SDS011;28144;49.920;18.730;2024-01-16T14:11:11;13.77;;;3.80;;
42514;SDS011;28144;49.920;18.730;2024-01-16T14:13:36;10.10;;;3.57;;
42514;SDS011;28144;49.920;18.730;2024-01-16T14:16:02;9.55;;;3.35;;
42514;SDS011;28144;49.920;18.730;2024-01-16T14:18:28;7.83;;;3.47;;
42514;SDS011;28144;49.920;18.730;2024-01-16T14:20:54;11.57;;;3.23;;
42514;SDS011;28144;49.920;18.730;2024-01-16T14:23:20;12.37;;;3.30;;
42514;SDS011;28144;49.920;18.730;2024-01-16T14:25:46;8.32;;;3.40;;
42514;SDS011;28144;49.920;18.730;2024-01-16T14:28:12;8.77;;;3.43;;
42514;SDS011;28144;49.920;18.730;2024-01-16T14:30:38;7.78;;;2.67;;
42514;SDS011;28144;49.920;18.730;2024-01-16T14:33:03;6.93;;;2.57;;
42514;SDS011;28144;49.920;18.730;2024-01-16T14:35:32;9.13;;;2.73;;
42514;SDS011;28144;49.920;18.730;2024-01-16T14:37:58;8.77;;;2.97;;
42514;SDS011;28144;49.920;18.730;2024-01-16T14:40:26;5.43;;;2.50;;
42514;SDS011;28144;49.920;18.730;2024-01-16T14:42:53;7.45;;;2.75;;
42514;SDS011;28144;49.920;18.730;2024-01-16T14:47:46;8.98;;;2.38;;
42514;SDS011;28144;49.920;18.730;2024-01-16T14:50:12;5.22;;;3.08;;
42514;SDS011;28144;49.920;18.730;2024-01-16T14:52:39;5.75;;;2.58;;
42514;SDS011;28144;49.920;18.730;2024-01-16T14:55:06;8.35;;;2.80;;
42514;SDS011;28144;49.920;18.730;2024-01-16T14:57:35;6.83;;;2.53;;
42514;SDS011;28144;49.920;18.730;2024-01-16T15:00:11;8.50;;;2.70;;
42514;SDS011;28144;49.920;18.730;2024-01-16T15:02:41;28.27;;;7.87;;
42514;SDS011;28144;49.920;18.730;2024-01-16T15:05:07;24.98;;;7.70;;
42514;SDS011;28144;49.920;18.730;2024-01-16T15:07:33;18.93;;;7.30;;
42514;SDS011;28144;49.920;18.730;2024-01-16T15:10:00;27.73;;;9.33;;
42514;SDS011;28144;49.920;18.730;2024-01-16T15:12:26;18.00;;;6.63;;
42514;SDS011;28144;49.920;18.730;2024-01-16T15:14:52;14.30;;;6.33;;